Time;durP1;ratioP1;P1;durP2;ratioP2;P2;SDS_P1;SDS_P2;PMS_P1;PMS_P2;Temp;Humidity;BMP_temperature;BMP_pressure;BME280_temperature;BME280_humidity;BME280_pressure;Samples;Min_cycle;Max_cycle;Signal;HPM_P1;HPM_P2
2021/01/08 00:02:23;;;;;;;13.20;7.77;;;;;;;1.57;79.82;97521.19;5008541;28;20209;-84
2021/01/08 00:04:49;;;;;;;16.43;10.03;;;;;;;1.59;79.94;97519.44;5010281;28;20371;-84
2021/01/08 00:07:15;;;;;;;15.20;8.83;;;;;;;1.57;79.94;97530.63;5013472;28;20314;-82
2021/01/08 00:09:42;;;;;;;16.10;10.67;;;;;;;1.53;80.21;97527.25;5014643;28;20226;-83
2021/01/08 00:12:10;;;;;;;15.83;9.20;;;;;;;1.54;80.25;97516.06;5010407;28;20233;-84
2021/01/08 00:14:36;;;;;;;16.23;10.23;;;;;;;1.50;80.64;97519.56;5014763;28;20382;-84
2021/01/08 00:17:03;;;;;;;18.53;10.50;;;;;;;1.51;80.23;97526.41;5014017;28;20226;-84
2021/01/08 00:19:29;;;;;;;15.70;8.87;;;;;;;1.49;80.44;97520.41;5011984;28;20229;-85
2021/01/08 00:21:56;;;;;;;17.63;10.27;;;;;;;1.52;80.33;97522.97;5013181;28;20219;-83
2021/01/08 00:24:22;;;;;;;15.33;9.73;;;;;;;1.53;80.50;97514.41;5014304;28;20238;-84
2021/01/08 00:26:48;;;;;;;18.97;10.67;;;;;;;1.60;80.54;97523.72;5008845;28;20218;-85
2021/01/08 00:29:17;;;;;;;19.40;11.50;;;;;;;1.66;80.13;97521.06;5007695;28;20230;-84
2021/01/08 00:31:44;;;;;;;16.73;10.83;;;;;;;1.67;80.42;97512.50;5014551;28;21009;-84
2021/01/08 00:34:13;;;;;;;18.67;10.87;;;;;;;1.75;80.27;97512.38;5011966;28;20241;-82
2021/01/08 00:36:48;;;;;;;20.00;11.47;;;;;;;1.78;79.88;97509.75;5014416;28;20229;-85
2021/01/08 00:39:15;;;;;;;20.17;11.07;;;;;;;1.80;79.96;97514.88;5013451;28;20751;-84
2021/01/08 00:41:41;;;;;;;16.73;10.40;;;;;;;1.74;79.93;97519.22;5007721;28;20220;-83
2021/01/08 00:44:08;;;;;;;18.43;11.97;;;;;;;1.75;80.01;97514.97;5012075;28;20243;-83
2021/01/08 00:46:36;;;;;;;19.37;11.60;;;;;;;1.70;79.88;97509.88;5013323;28;20218;-84
2021/01/08 00:49:02;;;;;;;18.67;11.00;;;;;;;1.74;80.08;97505.53;5009482;28;20244;-83
2021/01/08 00:51:29;;;;;;;21.30;11.63;;;;;;;1.76;80.15;97510.66;5016014;28;20588;-84
2021/01/08 00:53:55;;;;;;;20.60;11.10;;;;;;;1.74;80.18;97508.94;5006785;28;20700;-86
2021/01/08 00:56:22;;;;;;;21.93;11.20;;;;;;;1.77;80.27;97512.38;5014536;28;20222;-84
2021/01/08 00:58:48;;;;;;;19.30;10.47;;;;;;;1.79;80.15;97505.50;5016450;28;20222;-83
2021/01/08 01:01:15;;;;;;;21.23;11.07;;;;;;;1.80;80.12;97518.31;5017878;28;21076;-84
2021/01/08 01:03:42;;;;;;;19.03;11.13;;;;;;;1.79;80.25;97511.47;5016502;28;20223;-83
2021/01/08 01:06:08;;;;;;;19.27;11.03;;;;;;;1.77;80.20;97512.38;5016845;28;20215;-83
2021/01/08 01:08:34;;;;;;;21.77;11.97;;;;;;;1.72;80.60;97510.69;5017495;28;20211;-84
2021/01/08 01:11:01;;;;;;;18.20;10.40;;;;;;;1.70;80.59;97511.59;5017785;28;20243;-85
2021/01/08 01:13:27;;;;;;;19.93;11.33;;;;;;;1.72;80.44;97515.00;5015069;28;20666;-84
2021/01/08 01:15:54;;;;;;;20.43;11.40;;;;;;;1.68;80.61;97514.19;5016890;28;20619;-85
2021/01/08 01:18:21;;;;;;;19.17;10.73;;;;;;;1.67;80.69;97516.78;5019480;28;20297;-84
2021/01/08 01:20:48;;;;;;;18.70;11.13;;;;;;;1.67;80.81;97517.66;5017723;28;20219;-85
2021/01/08 01:23:15;;;;;;;19.87;11.43;;;;;;;1.60;80.88;97513.44;5017033;28;20203;-85
2021/01/08 01:25:43;;;;;;;21.83;12.03;;;;;;;1.64;80.97;97517.66;5012275;28;20235;-84
2021/01/08 01:28:10;;;;;;;20.70;11.73;;;;;;;1.63;81.27;97517.69;5018421;28;20273;-83
2021/01/08 01:30:36;;;;;;;19.67;10.67;;;;;;;1.66;81.05;97523.63;5016030;28;20599;-84
2021/01/08 01:33:02;;;;;;;21.17;12.40;;;;;;;1.68;80.89;97532.19;5012439;28;20595;-84
2021/01/08 01:35:30;;;;;;;18.83;9.87;;;;;;;1.66;81.19;97530.50;5020214;28;20714;-83
2021/01/08 01:37:57;;;;;;;22.70;11.90;;;;;;;1.64;81.28;97533.09;5013576;28;20607;-84
2021/01/08 01:40:23;;;;;;;22.37;12.43;;;;;;;1.69;81.33;97531.31;5013550;28;20218;-85
2021/01/08 01:42:49;;;;;;;25.93;13.60;;;;;;;1.70;81.11;97538.16;5015198;28;20215;-85
2021/01/08 01:45:16;;;;;;;26.17;13.00;;;;;;;1.67;81.03;97527.94;5018026;28;20966;-83
2021/01/08 01:47:42;;;;;;;24.77;12.87;;;;;;;1.64;81.08;97533.09;5017048;28;20673;-83
2021/01/08 01:50:09;;;;;;;29.10;15.23;;;;;;;1.59;81.47;97527.16;5012452;28;20316;-84
2021/01/08 01:52:35;;;;;;;23.97;12.67;;;;;;;1.58;81.52;97533.19;5015254;28;20575;-85
2021/01/08 01:55:03;;;;;;;19.23;10.37;;;;;;;1.56;81.66;97532.31;5015289;28;20351;-84
2021/01/08 01:57:30;;;;;;;22.43;12.80;;;;;;;1.57;81.64;97530.63;5019044;28;20920;-84
2021/01/08 01:59:56;;;;;;;17.03;9.80;;;;;;;1.52;82.05;97522.97;5012418;28;20707;-83
2021/01/08 02:02:24;;;;;;;20.80;10.87;;;;;;;1.48;82.11;97527.28;5017757;28;20214;-83
2021/01/08 02:04:51;;;;;;;22.87;12.03;;;;;;;1.48;81.94;97521.31;5017505;28;20242;-84
2021/01/08 02:07:18;;;;;;;23.60;13.30;;;;;;;1.51;82.09;97523.84;5019094;28;20216;-83
2021/01/08 02:09:45;;;;;;;20.30;11.40;;;;;;;1.50;82.14;97537.56;5017534;28;20261;-83
2021/01/08 02:12:13;;;;;;;23.10;12.80;;;;;;;1.51;82.15;97536.69;5017270;28;20299;-83
2021/01/08 02:14:42;;;;;;;19.60;11.90;;;;;;;1.44;82.52;97535.06;5013820;28;20805;-84
2021/01/08 02:17:08;;;;;;;25.30;13.57;;;;;;;1.46;82.22;97535.91;5017148;28;20246;-84
2021/01/08 02:19:37;;;;;;;25.00;13.70;;;;;;;1.50;82.30;97537.56;5017799;28;20223;-85
2021/01/08 02:22:09;;;;;;;26.30;13.23;;;;;;;1.53;82.06;97537.53;5017620;28;20222;-84
2021/01/08 02:24:39;;;;;;;22.80;12.97;;;;;;;1.51;82.36;97534.13;5017429;28;20230;-84
2021/01/08 02:27:06;;;;;;;19.73;11.17;;;;;;;1.42;82.54;97536.81;5016669;28;20793;-84
2021/01/08 02:29:32;;;;;;;24.47;12.50;;;;;;;1.47;82.58;97535.00;5016017;28;20218;-83
2021/01/08 02:31:59;;;;;;;26.07;14.73;;;;;;;1.50;82.67;97540.13;5014756;28;20247;-85
2021/01/08 02:34:25;;;;;;;20.23;11.73;;;;;;;1.45;82.96;97537.63;5011801;28;20234;-84
2021/01/08 02:36:52;;;;;;;22.73;12.53;;;;;;;1.45;82.59;97531.63;5013936;28;20856;-83
2021/01/08 02:39:18;;;;;;;24.53;13.07;;;;;;;1.45;82.56;97531.63;5015749;28;20876;-84
2021/01/08 02:41:46;;;;;;;27.37;15.07;;;;;;;1.51;82.67;97536.69;5012607;28;20215;-84
2021/01/08 02:44:14;;;;;;;24.13;13.60;;;;;;;1.59;82.50;97534.88;5018983;28;20283;-85
2021/01/08 02:46:41;;;;;;;28.83;14.80;;;;;;;1.59;82.46;97532.28;5015345;28;20314;-84
2021/01/08 02:49:07;;;;;;;23.37;13.33;;;;;;;1.58;82.62;97535.75;5014203;28;20222;-83
2021/01/08 02:51:33;;;;;;;24.23;13.00;;;;;;;1.52;82.49;97533.25;5014250;28;20238;-83
2021/01/08 02:53:59;;;;;;;17.37;10.13;;;;;;;1.46;82.97;97530.75;5011190;28;20229;-85
2021/01/08 02:56:30;;;;;;;23.37;13.13;;;;;;;1.48;82.75;97531.59;5014787;28;20253;-85
2021/01/08 02:58:57;;;;;;;24.00;13.47;;;;;;;1.45;83.20;97523.91;5014376;28;20227;-83
2021/01/08 03:01:24;;;;;;;20.77;12.33;;;;;;;1.43;83.05;97533.34;5017990;28;20246;-83
2021/01/08 03:03:50;;;;;;;21.30;11.37;;;;;;;1.36;83.19;97540.31;5013590;28;20219;-85
2021/01/08 03:06:17;;;;;;;18.10;10.77;;;;;;;1.38;83.05;97532.56;5018343;28;20215;-84
2021/01/08 03:08:43;;;;;;;21.17;12.53;;;;;;;1.43;83.02;97535.94;5013462;28;20223;-84
2021/01/08 03:11:09;;;;;;;21.10;12.47;;;;;;;1.47;82.97;97540.16;5012840;28;20246;-83
2021/01/08 03:13:37;;;;;;;19.50;10.53;;;;;;;1.49;83.28;97538.41;5018880;28;20218;-83
2021/01/08 03:16:04;;;;;;;21.83;12.03;;;;;;;1.45;83.08;97532.50;5014080;28;20231;-84
2021/01/08 03:18:31;;;;;;;20.50;11.17;;;;;;;1.50;83.08;97540.13;5012622;28;20659;-84
2021/01/08 03:20:57;;;;;;;21.37;12.97;;;;;;;1.50;82.88;97540.13;5013087;28;20242;-84
2021/01/08 03:23:23;;;;;;;18.37;11.90;;;;;;;1.51;82.97;97544.41;5015476;28;20240;-83
2021/01/08 03:25:49;;;;;;;20.93;11.83;;;;;;;1.56;82.90;97540.03;5011297;28;20230;-85
2021/01/08 03:28:17;;;;;;;18.23;11.07;;;;;;;1.55;82.58;97538.34;5013448;28;20302;-84
2021/01/08 03:30:44;;;;;;;14.33;9.27;;;;;;;1.53;82.18;97540.09;5013453;28;20249;-83
2021/01/08 03:33:11;;;;;;;17.00;10.27;;;;;;;1.54;82.35;97541.78;5014938;28;20668;-83
2021/01/08 03:35:38;;;;;;;15.07;9.60;;;;;;;1.59;81.86;97540.00;5011596;28;20284;-84
2021/01/08 03:38:04;;;;;;;12.13;7.20;;;;;;;1.51;81.80;97549.56;5013928;28;20685;-84
2021/01/08 03:40:30;;;;;;;15.33;8.70;;;;;;;1.50;81.87;97540.13;5013961;28;20218;-83
2021/01/08 03:42:56;;;;;;;12.97;8.67;;;;;;;1.52;81.71;97543.53;5014277;28;20212;-83
2021/01/08 03:45:23;;;;;;;11.83;7.33;;;;;;;1.48;81.34;97547.00;5016665;28;20234;-84
2021/01/08 03:47:49;;;;;;;10.07;7.13;;;;;;;1.40;81.09;97538.53;5013921;28;20259;-85
2021/01/08 03:50:15;;;;;;;9.70;5.43;;;;;;;1.31;81.32;97542.91;5013098;28;20242;-83
2021/01/08 03:52:42;;;;;;;8.87;6.63;;;;;;;1.34;80.86;97542.88;5012099;28;20219;-84
2021/01/08 03:55:09;;;;;;;11.13;7.17;;;;;;;1.41;80.43;97540.22;5009961;28;20246;-85
2021/01/08 03:57:36;;;;;;;8.47;5.53;;;;;;;1.39;80.08;97536.84;5014980;28;20225;-84
2021/01/08 04:00:04;;;;;;;8.17;5.33;;;;;;;1.37;79.96;97536.84;5012322;28;20219;-84
2021/01/08 04:02:30;;;;;;;8.37;5.33;;;;;;;1.30;79.40;97543.75;5015319;28;20313;-84
2021/01/08 04:04:56;;;;;;;9.27;5.10;;;;;;;1.32;78.88;97536.91;5009840;28;20239;-84
2021/01/08 04:07:22;;;;;;;8.43;6.37;;;;;;;1.34;78.32;97535.19;5014136;28;20278;-83
2021/01/08 04:09:49;;;;;;;8.83;5.77;;;;;;;1.35;78.14;97542.00;5014100;28;20225;-84
2021/01/08 04:12:16;;;;;;;7.70;5.60;;;;;;;1.34;78.45;97535.19;5012791;28;20731;-83
2021/01/08 04:14:42;;;;;;;8.73;5.40;;;;;;;1.23;78.13;97537.03;5011257;28;20240;-83
2021/01/08 04:17:08;;;;;;;8.10;5.33;;;;;;;1.22;78.74;97544.75;5012697;28;20223;-82
2021/01/08 04:19:35;;;;;;;9.30;6.23;;;;;;;1.18;78.86;97528.50;5012866;28;20308;-84
2021/01/08 04:22:01;;;;;;;9.97;5.57;;;;;;;1.23;78.43;97544.72;5009452;28;20219;-83
2021/01/08 04:24:27;;;;;;;11.00;5.80;;;;;;;1.21;78.86;97536.16;4998421;28;20236;-83
2021/01/08 04:26:55;;;;;;;10.43;6.60;;;;;;;1.20;78.83;97539.63;5012192;28;20285;-83
2021/01/08 04:29:21;;;;;;;8.93;5.90;;;;;;;1.15;79.04;97531.09;5012499;28;20233;-84
2021/01/08 04:31:47;;;;;;;7.97;5.03;;;;;;;1.18;78.44;97532.78;5013512;28;20238;-84
2021/01/08 04:34:13;;;;;;;8.97;5.67;;;;;;;1.14;78.18;97526.84;5017333;28;20738;-83
2021/01/08 04:36:40;;;;;;;8.30;5.00;;;;;;;1.13;78.19;97535.41;5015877;28;20726;-84
2021/01/08 04:39:06;;;;;;;8.83;5.87;;;;;;;1.18;78.20;97533.66;5016027;28;20268;-84
2021/01/08 04:41:36;;;;;;;9.03;5.93;;;;;;;1.18;77.94;97536.22;5017072;28;20218;-83
2021/01/08 04:44:03;;;;;;;9.73;5.63;;;;;;;1.18;78.46;97538.78;5017026;28;20218;-84
2021/01/08 04:46:31;;;;;;;9.00;5.70;;;;;;;1.14;78.12;97537.13;5019855;28;20218;-83
2021/01/08 04:48:59;;;;;;;9.70;6.27;;;;;;;1.15;77.74;97536.25;5018347;28;20962;-83
2021/01/08 04:51:28;;;;;;;10.10;6.23;;;;;;;1.16;78.06;97535.38;5018284;28;20287;-84
2021/01/08 04:53:55;;;;;;;9.93;6.00;;;;;;;1.25;77.96;97539.56;5016298;28;20224;-85
2021/01/08 04:56:25;;;;;;;9.17;5.87;;;;;;;1.16;77.49;97537.97;5016974;28;20271;-85
2021/01/08 04:58:52;;;;;;;9.20;5.67;;;;;;;1.13;77.63;97535.41;5014912;28;20971;-84
2021/01/08 05:01:19;;;;;;;10.53;6.80;;;;;;;1.18;77.68;97538.78;5017362;28;20216;-83
2021/01/08 05:03:46;;;;;;;12.77;5.67;;;;;;;1.16;77.25;97535.38;5015766;28;20229;-83
2021/01/08 05:06:12;;;;;;;7.07;4.70;;;;;;;1.14;77.51;97532.00;5017720;28;20222;-83
2021/01/08 05:08:39;;;;;;;9.90;6.00;;;;;;;1.18;77.58;97533.66;5017259;28;20227;-84
2021/01/08 05:11:21;;;;;;;9.43;5.80;;;;;;;1.17;77.38;97537.06;5017291;28;20611;-84
2021/01/08 05:13:52;;;;;;;7.97;4.87;;;;;;;1.21;77.13;97536.16;5016040;28;20647;-84
2021/01/08 05:16:20;;;;;;;8.27;4.33;;;;;;;1.20;76.94;97534.47;5018697;28;20223;-83
2021/01/08 05:18:46;;;;;;;8.17;5.07;;;;;;;1.19;76.50;97539.63;5016117;28;20242;-84
2021/01/08 05:21:12;;;;;;;8.13;4.87;;;;;;;1.16;76.46;97545.66;5017777;28;20219;-84
2021/01/08 05:23:39;;;;;;;6.33;4.43;;;;;;;1.10;76.07;97532.88;5017265;28;20215;-84
2021/01/08 05:26:05;;;;;;;9.50;5.37;;;;;;;1.12;76.49;97537.13;5014886;28;21113;-83
2021/01/08 05:28:32;;;;;;;12.47;6.37;;;;;;;1.16;76.03;97540.53;5017416;28;20211;-82
2021/01/08 05:30:58;;;;;;;9.70;5.70;;;;;;;1.18;76.35;97541.34;5013528;28;20702;-84
2021/01/08 05:33:25;;;;;;;8.97;5.20;;;;;;;1.18;76.55;97533.66;5017353;28;20232;-83
2021/01/08 05:35:51;;;;;;;8.47;5.37;;;;;;;1.13;76.14;97536.25;5013426;28;20241;-84
2021/01/08 05:38:21;;;;;;;9.57;5.27;;;;;;;1.13;76.25;97536.25;5017380;28;20233;-84
2021/01/08 05:40:47;;;;;;;8.10;5.27;;;;;;;1.16;76.74;97545.66;5015850;28;20678;-84
2021/01/08 05:43:14;;;;;;;7.73;5.47;;;;;;;1.17;76.70;97547.34;5017173;28;20215;-83
2021/01/08 05:45:40;;;;;;;9.93;6.03;;;;;;;1.13;76.72;97543.13;5013270;28;20235;-83
2021/01/08 05:48:08;;;;;;;11.63;5.57;;;;;;;1.15;76.73;97549.09;5013575;28;20870;-85
2021/01/08 05:50:35;;;;;;;10.23;6.40;;;;;;;1.14;76.66;97553.38;5016768;28;20627;-84
2021/01/08 05:53:04;;;;;;;10.70;6.00;;;;;;;1.19;76.48;97544.75;5014062;28;20226;-83
2021/01/08 05:55:35;;;;;;;10.53;6.50;;;;;;;1.19;76.49;97540.47;5017456;28;20230;-84
2021/01/08 05:58:01;;;;;;;10.17;6.17;;;;;;;1.21;76.61;97553.31;5012825;28;20214;-85
2021/01/08 06:00:28;;;;;;;12.63;6.97;;;;;;;1.17;76.79;97547.34;5016376;28;20214;-84
2021/01/08 06:02:55;;;;;;;11.17;7.03;;;;;;;1.14;76.65;97552.53;5006468;28;20231;-82
2021/01/08 06:05:22;;;;;;;9.23;6.40;;;;;;;1.11;76.94;97557.69;5020134;28;20328;-83
2021/01/08 06:07:50;;;;;;;11.57;6.83;;;;;;;1.10;77.14;97556.84;5015884;28;20206;-83
2021/01/08 06:10:19;;;;;;;11.63;7.60;;;;;;;1.10;77.16;97550.84;5018205;28;20227;-83
2021/01/08 06:12:47;;;;;;;9.63;6.30;;;;;;;1.08;77.23;97558.56;5016146;28;20243;-85
2021/01/08 06:15:15;;;;;;;12.73;7.43;;;;;;;1.06;77.82;97550.03;5019311;28;20737;-84
2021/01/08 06:17:46;;;;;;;10.53;7.13;;;;;;;1.12;77.83;97559.38;5016313;28;20219;-84
2021/01/08 06:20:13;;;;;;;10.67;6.60;;;;;;;1.08;77.91;97547.44;5018941;28;20212;-84
2021/01/08 06:22:40;;;;;;;13.03;7.23;;;;;;;1.18;78.21;97553.31;5015761;28;20266;-84
2021/01/08 06:25:09;;;;;;;12.37;7.57;;;;;;;1.16;77.87;97561.06;5015864;28;20241;-84
2021/01/08 06:27:36;;;;;;;12.90;7.07;;;;;;;1.21;78.30;97554.16;5017031;28;20659;-85
2021/01/08 06:30:04;;;;;;;13.37;7.40;;;;;;;1.23;78.46;97556.69;5019860;28;20225;-84
2021/01/08 06:32:31;;;;;;;12.30;7.07;;;;;;;1.13;78.29;97561.09;5016714;28;20245;-83
2021/01/08 06:35:08;;;;;;;13.17;7.63;;;;;;;1.07;78.10;97558.59;5012985;28;20246;-83
2021/01/08 06:37:38;;;;;;;11.23;7.37;;;;;;;1.10;78.12;97562.00;5019311;28;20632;-83
2021/01/08 06:40:05;;;;;;;12.47;6.73;;;;;;;1.08;78.39;97557.72;5014437;28;20632;-85
2021/01/08 06:42:33;;;;;;;15.20;7.47;;;;;;;1.11;78.49;97553.41;5017633;28;20260;-85
2021/01/08 06:44:59;;;;;;;11.83;7.53;;;;;;;1.13;78.65;97561.09;5011981;28;20250;-84
2021/01/08 06:47:28;;;;;;;11.37;7.40;;;;;;;1.13;78.39;97566.25;5015214;28;20263;-86
2021/01/08 06:49:58;;;;;;;12.93;7.00;;;;;;;1.12;78.50;97561.94;5015664;28;20227;-83
2021/01/08 06:52:24;;;;;;;13.73;8.03;;;;;;;1.12;78.31;97561.94;5017924;28;20780;-86
2021/01/08 06:54:53;;;;;;;13.47;7.57;;;;;;;1.19;78.47;97560.19;5015714;28;20238;-83
2021/01/08 06:57:19;;;;;;;12.67;6.60;;;;;;;1.19;78.19;97570.47;5020242;28;20215;-85
2021/01/08 06:59:53;;;;;;;14.67;7.77;;;;;;;1.15;77.90;97570.47;5015353;28;20602;-84
2021/01/08 07:02:21;;;;;;;12.27;7.80;;;;;;;1.17;78.57;97567.91;5017861;28;20234;-85
2021/01/08 07:04:48;;;;;;;12.30;6.43;;;;;;;1.11;78.43;97565.41;5015769;28;20242;-84
2021/01/08 07:07:15;;;;;;;14.27;7.83;;;;;;;1.16;78.43;97561.06;5015439;28;20223;-85
2021/01/08 07:09:41;;;;;;;12.57;7.23;;;;;;;1.20;78.49;97562.75;5015192;28;20222;-84
2021/01/08 07:12:09;;;;;;;11.60;6.37;;;;;;;1.25;78.21;97565.25;5014821;28;20239;-84
2021/01/08 07:14:36;;;;;;;11.73;6.23;;;;;;;1.22;78.26;97576.41;5014387;28;20246;-84
2021/01/08 07:17:05;;;;;;;12.67;7.07;;;;;;;1.17;78.09;97572.19;5015083;28;20222;-83
2021/01/08 07:19:32;;;;;;;11.30;6.80;;;;;;;1.19;78.04;97573.03;5017316;28;20222;-83
2021/01/08 07:22:00;;;;;;;11.50;7.00;;;;;;;1.18;78.10;97569.63;5012447;28;20216;-83
2021/01/08 07:24:29;;;;;;;11.00;5.90;;;;;;;1.23;78.37;97572.13;5017951;28;20642;-83
2021/01/08 07:27:13;;;;;;;11.00;5.63;;;;;;;1.21;77.54;97579.84;5013050;28;20214;-84
2021/01/08 07:29:39;;;;;;;10.40;6.40;;;;;;;1.25;77.72;97581.53;5017716;28;20219;-85
2021/01/08 07:32:06;;;;;;;11.30;7.17;;;;;;;1.32;77.85;97583.16;5015588;28;20604;-84
2021/01/08 07:34:34;;;;;;;8.70;5.60;;;;;;;1.24;77.75;97584.13;5015903;28;20672;-84
2021/01/08 07:37:00;;;;;;;9.50;6.33;;;;;;;1.25;77.56;97584.09;5015168;28;20223;-85
2021/01/08 07:39:40;;;;;;;11.47;6.43;;;;;;;1.25;77.52;97596.94;5015560;28;20210;-84
2021/01/08 07:42:31;;;;;;;10.83;6.67;;;;;;;1.22;77.87;97585.84;5015378;28;20215;-84
2021/01/08 07:44:57;;;;;;;14.23;7.57;;;;;;;1.32;77.81;97593.44;5013594;28;20243;-84
2021/01/08 07:47:28;;;;;;;11.57;6.33;;;;;;;1.40;77.79;97600.19;5013039;28;20214;-84
2021/01/08 07:50:08;;;;;;;11.27;6.37;;;;;;;1.46;77.67;97597.59;5014133;28;20787;-84
2021/01/08 07:52:38;;;;;;;11.80;7.00;;;;;;;1.51;77.61;97596.66;5015762;28;20419;-84
2021/01/08 07:55:05;;;;;;;11.00;6.33;;;;;;;1.47;77.29;97601.84;5013673;28;20247;-85
2021/01/08 07:58:04;;;;;;;12.90;5.90;;;;;;;1.44;77.77;97596.75;5018313;28;20218;-84
2021/01/08 08:00:31;;;;;;;10.10;5.73;;;;;;;1.50;77.62;97604.38;5017205;28;20225;-85
2021/01/08 08:02:59;;;;;;;10.57;6.13;;;;;;;1.45;77.74;97598.44;5014244;28;20223;-84
2021/01/08 08:05:26;;;;;;;11.33;6.40;;;;;;;1.48;77.55;97598.41;5016030;28;20276;-85
2021/01/08 08:07:56;;;;;;;10.03;6.37;;;;;;;1.52;77.56;97602.63;5012882;28;20220;-83
2021/01/08 08:10:23;;;;;;;9.60;5.50;;;;;;;1.52;77.69;97605.22;5016113;28;20237;-84
2021/01/08 08:12:51;;;;;;;11.47;6.77;;;;;;;1.50;77.92;97600.09;5016682;28;20222;-85
2021/01/08 08:15:17;;;;;;;10.97;5.57;;;;;;;1.47;77.77;97606.97;5016230;28;20242;-84
2021/01/08 08:17:44;;;;;;;10.73;6.43;;;;;;;1.54;77.66;97608.59;5011416;28;20222;-85
2021/01/08 08:20:21;;;;;;;7.47;5.00;;;;;;;1.52;77.63;97606.06;5017271;28;20226;-83
2021/01/08 08:22:48;;;;;;;10.70;6.10;;;;;;;1.54;77.73;97608.59;5015989;28;20232;-84
2021/01/08 08:25:38;;;;;;;8.00;5.37;;;;;;;1.57;77.20;97625.75;5013002;28;20251;-85
2021/01/08 08:28:04;;;;;;;11.43;6.43;;;;;;;1.64;77.72;97615.38;4990756;28;20223;-85
2021/01/08 08:30:31;;;;;;;12.73;7.33;;;;;;;1.69;77.71;97613.59;5017796;28;20214;-84
2021/01/08 08:32:58;;;;;;;9.80;6.33;;;;;;;1.65;77.66;97618.78;5008309;28;20269;-84
2021/01/08 08:35:25;;;;;;;10.40;6.27;;;;;;;1.69;77.74;97613.59;5014954;28;20249;-84
2021/01/08 08:37:53;;;;;;;9.80;5.47;;;;;;;1.64;77.61;97617.09;5011454;28;20215;-84
2021/01/08 08:40:22;;;;;;;12.50;6.60;;;;;;;1.70;77.79;97622.16;5014265;28;20219;-83
2021/01/08 08:42:52;;;;;;;11.23;6.23;;;;;;;1.73;77.68;97620.41;5016361;28;20229;-84
2021/01/08 08:45:24;;;;;;;11.93;6.60;;;;;;;1.77;77.51;97625.50;5015098;28;20320;-84
2021/01/08 08:47:52;;;;;;;11.73;7.10;;;;;;;1.76;77.81;97618.66;5015265;28;20234;-86
2021/01/08 08:50:19;;;;;;;12.13;7.07;;;;;;;1.78;77.91;97617.75;5017262;28;20234;-84
2021/01/08 08:52:47;;;;;;;9.20;6.03;;;;;;;1.81;77.67;97625.44;5011303;28;20325;-84
2021/01/08 08:55:29;;;;;;;10.07;6.27;;;;;;;1.82;77.86;97627.16;5013133;28;20242;-83
2021/01/08 08:58:06;;;;;;;13.80;6.67;;;;;;;1.81;77.71;97616.88;5015382;28;20273;-83
2021/01/08 09:00:33;;;;;;;13.07;7.20;;;;;;;1.83;78.09;97618.56;5018628;28;20214;-84
2021/01/08 09:03:00;;;;;;;10.53;6.37;;;;;;;1.90;77.43;97621.91;5011849;28;20326;-85
2021/01/08 09:05:33;;;;;;;11.37;7.23;;;;;;;1.95;77.53;97621.84;5013565;28;20325;-86
2021/01/08 09:08:14;;;;;;;12.70;7.33;;;;;;;2.01;77.76;97627.78;5012041;28;20810;-86
2021/01/08 09:10:46;;;;;;;13.10;7.23;;;;;;;2.01;77.55;97637.22;5017319;28;20606;-85
2021/01/08 09:13:14;;;;;;;11.27;7.07;;;;;;;1.96;77.65;97637.25;5016834;28;20674;-86
2021/01/08 09:15:46;;;;;;;11.07;6.43;;;;;;;1.98;77.79;97622.66;5014799;28;20333;-85
2021/01/08 09:18:23;;;;;;;12.33;6.53;;;;;;;2.05;78.00;97634.56;5017815;28;20227;-84
2021/01/08 09:20:53;;;;;;;11.17;6.93;;;;;;;2.07;77.91;97637.97;5019045;28;20206;-84
2021/01/08 09:23:21;;;;;;;11.07;7.20;;;;;;;2.09;77.82;97638.78;5019820;28;20219;-84
2021/01/08 09:25:47;;;;;;;11.90;6.67;;;;;;;2.10;77.93;97640.50;5017413;28;20292;-86
2021/01/08 09:28:16;;;;;;;10.47;6.60;;;;;;;2.07;77.80;97640.53;5016672;28;20211;-86
2021/01/08 09:30:49;;;;;;;10.03;6.37;;;;;;;2.07;77.61;97637.13;5018528;28;20220;-85
2021/01/08 09:33:16;;;;;;;12.80;6.87;;;;;;;2.05;77.86;97639.72;5022789;28;20640;-84
2021/01/08 09:35:44;;;;;;;11.50;6.83;;;;;;;2.07;77.96;97631.97;5016488;28;20231;-85
2021/01/08 09:38:13;;;;;;;13.00;7.53;;;;;;;2.16;78.11;97643.88;5018524;28;20215;-85
2021/01/08 09:40:41;;;;;;;12.03;7.10;;;;;;;2.20;78.06;97641.22;5017352;28;20215;-84
2021/01/08 09:43:15;;;;;;;11.33;6.90;;;;;;;2.21;77.74;97644.69;5014381;28;20223;-85
2021/01/08 09:45:42;;;;;;;11.43;6.60;;;;;;;2.16;78.31;97649.03;5015706;28;20239;-84
2021/01/08 09:48:20;;;;;;;10.67;7.17;;;;;;;2.18;78.08;97642.13;5015082;28;20216;-84
2021/01/08 09:50:46;;;;;;;11.30;7.20;;;;;;;2.16;78.14;97638.75;5018525;28;20218;-84
2021/01/08 09:53:13;;;;;;;11.50;7.33;;;;;;;2.14;78.33;97645.63;5016549;28;20257;-84
2021/01/08 09:55:40;;;;;;;10.17;6.83;;;;;;;2.16;78.39;97647.31;5013761;28;20270;-85
2021/01/08 09:58:07;;;;;;;10.93;6.83;;;;;;;2.14;78.50;97645.63;5016502;28;20219;-85
2021/01/08 10:00:35;;;;;;;13.03;7.67;;;;;;;2.21;78.22;97636.97;5018036;28;20243;-86
2021/01/08 10:03:01;;;;;;;11.03;7.03;;;;;;;2.22;78.19;97633.50;5015842;28;20589;-83
2021/01/08 10:05:29;;;;;;;10.40;6.77;;;;;;;2.31;77.93;97636.78;5016964;28;20238;-91
2021/01/08 10:07:56;;;;;;;10.93;7.10;;;;;;;2.40;77.51;97635.81;5014369;28;20211;-89
2021/01/08 10:10:44;;;;;;;11.87;6.50;;;;;;;2.35;77.54;97627.31;5017710;28;20730;-84
2021/01/08 10:13:18;;;;;;;9.30;6.40;;;;;;;2.36;77.02;97625.59;5012439;28;20265;-83
2021/01/08 10:15:46;;;;;;;9.23;6.77;;;;;;;2.39;76.96;97636.72;5014535;28;20239;-85
2021/01/08 10:18:14;;;;;;;9.63;5.33;;;;;;;2.42;76.52;97630.66;5019021;28;20211;-84
2021/01/08 10:20:43;;;;;;;10.43;6.70;;;;;;;2.32;76.55;97624.78;5017711;28;20227;-83
2021/01/08 10:23:14;;;;;;;10.33;6.37;;;;;;;2.38;76.69;97624.69;5018718;28;20298;-83
2021/01/08 10:25:41;;;;;;;9.13;6.70;;;;;;;2.45;76.59;97636.59;5015334;28;20358;-85
2021/01/08 10:28:13;;;;;;;9.53;6.33;;;;;;;2.57;76.55;97629.56;5017867;28;20303;-84
2021/01/08 10:30:45;;;;;;;9.93;6.57;;;;;;;2.59;76.29;97623.53;5015957;28;20211;-84
2021/01/08 10:33:12;;;;;;;9.80;6.27;;;;;;;2.66;76.38;97624.28;5012392;28;20258;-83
2021/01/08 10:35:38;;;;;;;9.47;6.97;;;;;;;2.64;76.12;97620.88;5012585;28;20320;-83
2021/01/08 10:38:05;;;;;;;11.03;6.20;;;;;;;2.62;76.22;97612.34;5010339;28;20278;-85
2021/01/08 10:40:31;;;;;;;10.93;7.17;;;;;;;2.62;76.20;97617.50;5013751;28;20301;-84
2021/01/08 10:42:58;;;;;;;9.83;5.80;;;;;;;2.50;76.58;97614.22;5011472;28;20280;-83
2021/01/08 10:45:25;;;;;;;7.57;5.37;;;;;;;2.46;76.62;97617.72;5012748;28;20784;-83
2021/01/08 10:47:51;;;;;;;16.27;6.73;;;;;;;2.47;76.65;97614.25;5009191;28;20218;-85
2021/01/08 10:50:18;;;;;;;10.63;6.67;;;;;;;2.40;77.01;97622.94;5011946;28;20324;-83
2021/01/08 10:52:45;;;;;;;9.93;6.30;;;;;;;2.30;77.47;97619.66;5009353;28;20234;-84
2021/01/08 10:55:12;;;;;;;8.73;5.73;;;;;;;2.28;77.30;97608.53;5012714;28;20326;-85
2021/01/08 10:57:38;;;;;;;9.50;5.90;;;;;;;2.29;77.65;97617.09;5011808;28;20222;-85
2021/01/08 11:00:07;;;;;;;9.80;6.80;;;;;;;2.20;77.81;97610.34;5011970;28;20216;-84
2021/01/08 11:02:34;;;;;;;11.07;6.77;;;;;;;2.26;77.40;97612.00;5012187;28;20276;-83
2021/01/08 11:05:01;;;;;;;11.20;7.37;;;;;;;2.34;77.77;97611.91;5007545;28;20235;-83
2021/01/08 11:07:27;;;;;;;10.93;7.60;;;;;;;2.32;77.74;97604.19;5009732;28;20225;-84
2021/01/08 11:09:53;;;;;;;13.07;7.13;;;;;;;2.34;77.85;97607.59;5018571;28;20227;-84
2021/01/08 11:12:20;;;;;;;10.30;6.90;;;;;;;2.36;78.15;97599.88;5012930;28;20231;-83
2021/01/08 11:14:46;;;;;;;12.43;7.30;;;;;;;2.34;77.95;97599.03;5023265;28;20239;-84
2021/01/08 11:17:13;;;;;;;12.10;7.30;;;;;;;2.42;77.88;97605.75;5010496;28;20211;-84
2021/01/08 11:22:30;;;;;;;11.83;7.30;;;;;;;2.42;77.93;97599.75;5006975;28;20674;-84
2021/01/08 11:24:56;;;;;;;10.10;6.83;;;;;;;2.42;78.17;97590.31;5007486;28;20242;-83
2021/01/08 11:27:22;;;;;;;9.27;7.03;;;;;;;2.43;78.20;97596.34;5013855;28;20763;-85
2021/01/08 11:29:49;;;;;;;10.23;6.37;;;;;;;2.36;78.27;97589.56;5011958;28;20214;-84
2021/01/08 11:32:15;;;;;;;11.80;7.73;;;;;;;2.42;78.51;97594.63;5010898;28;20659;-84
2021/01/08 11:34:41;;;;;;;10.20;6.30;;;;;;;2.36;78.81;97600.72;5010302;28;20230;-85
2021/01/08 11:37:09;;;;;;;10.27;6.70;;;;;;;2.40;78.84;97596.38;5009845;28;20232;-85
2021/01/08 11:39:35;;;;;;;10.83;8.00;;;;;;;2.43;78.45;97589.44;5011956;28;20218;-85
2021/01/08 11:42:02;;;;;;;8.97;6.17;;;;;;;2.41;78.76;97598.91;5009891;28;20211;-85